createdAt,value
2022-11-23T00:00:29.092Z,99279.98
2022-11-23T00:02:44.607Z,99281.66
2022-11-23T00:03:49.490Z,99278.01
2022-11-23T00:04:51.526Z,99284.23
2022-11-23T00:05:53.875Z,99289.59
2022-11-23T00:06:56.158Z,99292.15
2022-11-23T00:07:59.058Z,99286.80
2022-11-23T00:09:01.840Z,99285.08
2022-11-23T00:10:04.697Z,99289.47
2022-11-23T00:11:06.871Z,99285.82
2022-11-23T00:12:08.933Z,99288.50
2022-11-23T00:13:11.166Z,99291.18
2022-11-23T00:14:13.223Z,99289.34
2022-11-23T00:15:15.803Z,99292.02
2022-11-23T00:16:23.677Z,99296.55
2022-11-23T00:17:25.810Z,99296.41
2022-11-23T00:18:28.842Z,99292.86
2022-11-23T00:19:32.476Z,99292.86
2022-11-23T00:20:34.897Z,99293.73
2022-11-23T00:21:37.210Z,99295.55
2022-11-23T00:22:39.402Z,99303.58
2022-11-23T00:23:41.579Z,99303.58
2022-11-23T00:24:43.686Z,99305.42
2022-11-23T00:25:45.757Z,99291.41
2022-11-23T00:26:48.833Z,99295.46
2022-11-23T00:27:51.740Z,99297.20
2022-11-23T00:28:54.794Z,99302.98
2022-11-23T00:29:58.342Z,99286.41
2022-11-23T00:31:01.011Z,99297.51
2022-11-23T00:32:04.226Z,99285.63
2022-11-23T00:33:06.367Z,99289.45
2022-11-23T00:34:08.633Z,99290.48
2022-11-23T00:35:10.698Z,99287.84
2022-11-23T00:36:14.308Z,99301.02
2022-11-23T00:37:16.338Z,99302.01
2022-11-23T00:38:18.401Z,99296.31
2022-11-23T00:39:20.691Z,99297.56
2022-11-23T00:40:23.933Z,99294.34
2022-11-23T00:41:27.605Z,99297.39
2022-11-23T00:42:32.589Z,99297.67
2022-11-23T00:43:35.361Z,99302.47
2022-11-23T00:44:37.471Z,99298.36
2022-11-23T00:45:41.382Z,99304.95
2022-11-23T00:46:43.589Z,99300.87
2022-11-23T00:47:45.663Z,99301.38
2022-11-23T00:48:50.028Z,99300.06
2022-11-23T00:49:53.083Z,99300.45
2022-11-23T00:50:55.313Z,99301.80
2022-11-23T00:51:59.574Z,99303.16
2022-11-23T00:53:02.730Z,99311.57
2022-11-23T00:54:05.477Z,99301.50
2022-11-23T00:55:08.020Z,99309.16
2022-11-23T00:56:10.580Z,99308.80
2022-11-23T00:57:13.310Z,99307.58
2022-11-23T00:58:15.496Z,99306.38
2022-11-23T00:59:18.945Z,99300.66
2022-11-23T01:00:21.276Z,99300.44
2022-11-23T01:01:25.982Z,99296.55
2022-11-23T01:02:28.295Z,99298.02
2022-11-23T01:03:30.503Z,99297.77
2022-11-23T01:04:34.384Z,99301.19
2022-11-23T01:05:36.853Z,99300.09
2022-11-23T01:06:39.869Z,99300.84
2022-11-23T01:07:43.679Z,99297.08
2022-11-23T01:08:53.894Z,99298.63
2022-11-23T01:09:57.533Z,99296.70
2022-11-23T01:12:16.952Z,99295.35
2022-11-23T01:13:20.857Z,99308.63
2022-11-23T01:14:23.139Z,99310.22
2022-11-23T01:15:25.727Z,99298.53
2022-11-23T01:16:33.613Z,99300.21
2022-11-23T01:17:36.685Z,99301.80
2022-11-23T01:18:38.888Z,99304.22
2022-11-23T01:19:42.943Z,99307.78
2022-11-23T01:20:45.187Z,99303.13
2022-11-23T01:21:47.256Z,99307.53
2022-11-23T01:22:51.708Z,99296.68
2022-11-23T01:23:58.500Z,99302.88
2022-11-23T01:25:00.486Z,99300.11
2022-11-23T01:26:06.765Z,99310.70
2022-11-23T01:27:09.007Z,99314.22
2022-11-23T01:28:11.018Z,99307.89
2022-11-23T01:29:13.849Z,99317.64
2022-11-23T01:30:16.470Z,99315.80
2022-11-23T01:31:20.456Z,99322.87
2022-11-23T01:32:22.573Z,99317.52
2022-11-23T01:33:24.803Z,99315.67
2022-11-23T01:34:26.917Z,99321.88
2022-11-23T01:35:29.153Z,99315.55
2022-11-23T01:36:32.138Z,99320.91
2022-11-23T01:37:35.876Z,99312.87
2022-11-23T01:38:38.720Z,99311.06
2022-11-23T01:39:41.280Z,99315.42
2022-11-23T01:40:44.439Z,99317.26
2022-11-23T01:41:46.848Z,99311.90
2022-11-23T01:42:59.749Z,99314.45
2022-11-23T01:44:30.524Z,99320.66
2022-11-23T01:45:35.970Z,99318.84
2022-11-23T01:46:38.806Z,99315.30
2022-11-23T01:47:41.827Z,99320.66
2022-11-23T01:48:47.281Z,99319.81
2022-11-23T01:49:50.986Z,99322.63
2022-11-23T01:50:53.348Z,99319.94
2022-11-23T01:51:56.432Z,99325.30
2022-11-23T01:52:58.457Z,99319.94
2022-11-23T01:55:16.682Z,99321.63
2022-11-23T01:56:22.131Z,99319.69
2022-11-23T01:58:42.825Z,99317.11
2022-11-23T01:59:45.041Z,99318.72
2022-11-23T02:00:48.586Z,99317.84
2022-11-23T02:01:52.107Z,99314.33
2022-11-23T02:02:56.609Z,99326.76
2022-11-23T02:03:59.990Z,99325.79
2022-11-23T02:05:02.413Z,99324.79
2022-11-23T02:06:07.288Z,99327.47
2022-11-23T02:07:10.548Z,99325.66
2022-11-23T02:08:13.836Z,99326.50
2022-11-23T02:09:16.292Z,99324.79
2022-11-23T02:10:18.962Z,99325.66
2022-11-23T02:11:21.144Z,99328.34
2022-11-23T02:12:23.347Z,99333.70
2022-11-23T02:13:25.521Z,99335.38
2022-11-23T02:14:27.600Z,99336.25
2022-11-23T02:15:29.782Z,99335.38
2022-11-23T02:16:31.960Z,99331.73
2022-11-23T02:17:34.264Z,99338.94
2022-11-23T02:18:37.168Z,99329.19
2022-11-23T02:19:58.299Z,99332.70
2022-11-23T02:21:02.677Z,99335.38
2022-11-23T02:22:07.392Z,99325.79
2022-11-23T02:23:19.328Z,99335.89
2022-11-23T02:24:25.091Z,99342.47
2022-11-23T02:25:47.158Z,99345.66
2022-11-23T02:26:51.408Z,99348.55
2022-11-23T02:27:54.125Z,99345.53
2022-11-23T02:29:03.737Z,99333.48
2022-11-23T02:30:09.246Z,99334.70
2022-11-23T02:31:11.487Z,99337.72
2022-11-23T02:33:31.260Z,99332.02
2022-11-23T02:34:33.537Z,99338.46
2022-11-23T02:35:35.522Z,99332.36
2022-11-23T02:36:41.371Z,99329.89
2022-11-23T02:37:43.717Z,99329.14
2022-11-23T02:38:46.387Z,99336.46
2022-11-23T02:39:49.501Z,99336.58
2022-11-23T02:40:51.713Z,99337.67
2022-11-23T02:41:55.761Z,99346.66
2022-11-23T02:42:58.631Z,99347.63
2022-11-23T02:44:03.708Z,99351.30
2022-11-23T02:45:10.316Z,99341.55
2022-11-23T02:46:13.459Z,99346.16
2022-11-23T02:47:16.697Z,99353.34
2022-11-23T02:48:18.971Z,99346.28
2022-11-23T02:49:20.970Z,99349.08
2022-11-23T02:50:25.199Z,99341.05
2022-11-23T02:51:27.266Z,99345.69
2022-11-23T02:52:29.813Z,99343.01
2022-11-23T02:53:32.473Z,99346.65
2022-11-23T02:54:34.745Z,99348.48
2022-11-23T02:55:36.926Z,99351.16
2022-11-23T02:56:39.880Z,99348.61
2022-11-23T02:57:43.643Z,99360.16
2022-11-23T02:58:45.982Z,99347.85
2022-11-23T02:59:49.355Z,99343.34
2022-11-23T03:00:52.408Z,99346.14
2022-11-23T03:01:55.480Z,99346.14
2022-11-23T03:02:58.385Z,99347.97
2022-11-23T03:04:00.527Z,99355.16
2022-11-23T03:05:05.066Z,99356.13
2022-11-23T03:06:08.239Z,99358.80
2022-11-23T03:07:11.311Z,99361.48
2022-11-23T03:08:14.359Z,99356.25
2022-11-23T03:09:17.786Z,99364.28
2022-11-23T03:10:20.176Z,99360.73
2022-11-23T03:11:25.888Z,99365.23
2022-11-23T03:12:29.372Z,99363.52
2022-11-23T03:13:32.320Z,99364.40
2022-11-23T03:14:34.991Z,99360.01
2022-11-23T03:15:37.092Z,99359.05
2022-11-23T03:16:39.915Z,99361.84
2022-11-23T03:17:42.119Z,99355.62
2022-11-23T03:18:46.124Z,99354.78
2022-11-23T03:19:48.348Z,99357.45
2022-11-23T03:20:50.815Z,99351.23
2022-11-23T03:21:53.111Z,99352.09
2022-11-23T03:22:55.549Z,99349.42
2022-11-23T03:23:59.139Z,99353.91
2022-11-23T03:25:01.342Z,99349.03
2022-11-23T03:26:07.320Z,99349.03
2022-11-23T03:27:10.132Z,99346.88
2022-11-23T03:28:13.780Z,99353.06
2022-11-23T03:29:15.969Z,99349.55
2022-11-23T03:30:18.177Z,99346.88
2022-11-23T03:31:20.806Z,99353.19
2022-11-23T03:32:23.151Z,99350.51
2022-11-23T03:33:27.194Z,99353.19
2022-11-23T03:34:30.418Z,99351.34
2022-11-23T03:35:33.134Z,99342.48
2022-11-23T03:36:47.317Z,99344.31
2022-11-23T03:37:50.081Z,99339.80
2022-11-23T03:38:53.061Z,99344.31
2022-11-23T03:39:57.542Z,99338.09
2022-11-23T03:41:19.158Z,99342.60
2022-11-23T03:42:23.200Z,99341.73
2022-11-23T03:43:26.788Z,99347.08
2022-11-23T03:44:29.011Z,99340.05
2022-11-23T03:45:32.361Z,99358.77
2022-11-23T03:46:34.732Z,99350.75
2022-11-23T03:47:37.471Z,99359.73
2022-11-23T03:48:40.340Z,99356.22
2022-11-23T03:49:42.765Z,99356.09
2022-11-23T03:50:44.976Z,99357.06
2022-11-23T03:51:47.256Z,99359.73
2022-11-23T03:52:50.640Z,99358.77
2022-11-23T03:53:52.971Z,99351.70
2022-11-23T03:54:55.733Z,99360.58
2022-11-23T03:55:58.718Z,99363.25
2022-11-23T03:57:02.072Z,99368.61
2022-11-23T03:58:04.426Z,99370.44
2022-11-23T03:59:08.937Z,99371.28
2022-11-23T04:00:12.095Z,99373.95
2022-11-23T04:01:18.876Z,99376.64
2022-11-23T04:02:22.374Z,99379.31
2022-11-23T04:03:26.323Z,99375.80
2022-11-23T04:04:30.438Z,99381.14
2022-11-23T04:05:43.939Z,99378.47
2022-11-23T04:07:05.420Z,99373.12
2022-11-23T04:08:12.567Z,99371.41
2022-11-23T04:09:14.940Z,99374.08
2022-11-23T04:10:37.676Z,99376.87
2022-11-23T04:11:44.433Z,99383.06
2022-11-23T04:12:51.563Z,99384.06
2022-11-23T04:13:54.123Z,99389.41
2022-11-23T04:14:56.843Z,99385.98
2022-11-23T04:15:59.561Z,99382.47
2022-11-23T04:17:01.634Z,99386.86
2022-11-23T04:18:05.040Z,99385.98
2022-11-23T04:19:07.390Z,99389.53
2022-11-23T04:20:11.503Z,99385.98
2022-11-23T04:21:13.696Z,99386.86
2022-11-23T04:22:16.223Z,99384.18
2022-11-23T04:23:19.785Z,99390.38
2022-11-23T04:24:23.289Z,99379.67
2022-11-23T04:25:28.343Z,99380.51
2022-11-23T04:26:30.903Z,99378.70
2022-11-23T04:27:33.677Z,99376.99
2022-11-23T04:28:36.867Z,99376.99
2022-11-23T04:29:40.051Z,99380.51
2022-11-23T04:30:43.540Z,99385.86
2022-11-23T04:31:46.769Z,99376.03
2022-11-23T04:32:51.714Z,99374.31
2022-11-23T04:33:55.749Z,99375.16
2022-11-23T04:34:58.188Z,99373.36
2022-11-23T04:36:01.183Z,99372.48
2022-11-23T04:37:03.446Z,99365.33
2022-11-23T04:38:08.069Z,99377.84
2022-11-23T04:39:12.930Z,99376.87
2022-11-23T04:41:35.464Z,99374.34
2022-11-23T04:42:39.090Z,99376.03
2022-11-23T04:43:42.102Z,99378.83
2022-11-23T04:44:44.376Z,99381.50
2022-11-23T04:45:47.340Z,99378.70
2022-11-23T04:46:51.539Z,99380.51
2022-11-23T04:47:54.403Z,99382.34
2022-11-23T04:48:58.419Z,99384.06
2022-11-23T04:50:01.171Z,99382.34
2022-11-23T04:51:04.340Z,99380.51
2022-11-23T04:52:08.413Z,99379.67
2022-11-23T04:53:12.600Z,99383.19
2022-11-23T04:54:16.938Z,99374.31
2022-11-23T04:55:20.943Z,99377.84
2022-11-23T04:56:24.962Z,99377.84
2022-11-23T04:57:27.593Z,99376.03
2022-11-23T04:58:34.200Z,99377.72
2022-11-23T04:59:34.147Z,99381.38
2022-11-23T05:00:37.805Z,99384.06
2022-11-23T05:01:40.271Z,99384.91
2022-11-23T05:03:00.119Z,99375.16
2022-11-23T05:04:04.847Z,99385.86
2022-11-23T05:05:07.949Z,99379.67
2022-11-23T05:06:11.767Z,99383.19
2022-11-23T05:07:16.571Z,99384.18
2022-11-23T05:08:21.041Z,99378.83
2022-11-23T05:09:25.082Z,99379.79
2022-11-23T05:10:41.463Z,99387.70
2022-11-23T05:11:44.911Z,99385.02
2022-11-23T05:12:47.345Z,99382.34
2022-11-23T05:13:49.639Z,99381.50
2022-11-23T05:14:52.020Z,99382.34
2022-11-23T05:15:55.992Z,99384.91
2022-11-23T05:16:59.999Z,99384.91
2022-11-23T05:18:03.600Z,99380.39
2022-11-23T05:19:06.956Z,99385.74
2022-11-23T05:20:11.579Z,99384.78
2022-11-23T05:21:15.736Z,99394.52
2022-11-23T05:22:18.110Z,99398.05
2022-11-23T05:23:20.183Z,99399.76
2022-11-23T05:24:22.385Z,99412.17
2022-11-23T05:25:26.821Z,99401.47
2022-11-23T05:26:33.720Z,99404.98
2022-11-23T05:27:35.799Z,99406.70
2022-11-23T05:28:40.868Z,99409.38
2022-11-23T05:29:42.577Z,99404.88
2022-11-23T05:30:46.806Z,99405.74
2022-11-23T05:31:49.532Z,99407.43
2022-11-23T05:32:52.556Z,99404.75
2022-11-23T05:33:55.141Z,99410.11
2022-11-23T05:34:59.706Z,99411.81
2022-11-23T05:36:03.511Z,99418.89
2022-11-23T05:37:07.597Z,99417.05
2022-11-23T05:38:11.050Z,99414.37
2022-11-23T05:39:33.443Z,99417.05
2022-11-23T05:40:36.041Z,99411.58
2022-11-23T05:41:39.186Z,99416.09
2022-11-23T05:42:43.283Z,99419.61
2022-11-23T05:43:47.511Z,99416.93
2022-11-23T05:44:51.562Z,99422.28
2022-11-23T05:46:01.193Z,99414.25
2022-11-23T05:47:04.498Z,99407.10
2022-11-23T05:48:08.708Z,99415.13
2022-11-23T05:49:15.378Z,99409.78
2022-11-23T05:50:18.662Z,99415.97
2022-11-23T05:51:21.524Z,99413.30
2022-11-23T05:52:25.954Z,99419.48
2022-11-23T05:53:28.349Z,99427.52
2022-11-23T05:54:34.897Z,99423.04
2022-11-23T05:55:38.965Z,99423.04
2022-11-23T05:56:41.734Z,99425.72
2022-11-23T05:57:45.667Z,99421.20
2022-11-23T05:58:47.760Z,99423.88
2022-11-23T05:59:50.950Z,99424.75
2022-11-23T06:00:59.564Z,99425.72
2022-11-23T06:02:02.605Z,99425.59
2022-11-23T06:03:07.077Z,99427.44
2022-11-23T06:04:09.689Z,99433.62
2022-11-23T06:05:14.034Z,99430.11
2022-11-23T06:06:18.204Z,99430.95
2022-11-23T06:07:20.993Z,99434.47
2022-11-23T06:08:28.173Z,99430.11
2022-11-23T06:09:30.982Z,99430.95
2022-11-23T06:10:35.987Z,99435.46
2022-11-23T06:11:38.054Z,99433.62
2022-11-23T06:12:43.024Z,99428.27
2022-11-23T06:13:48.279Z,99432.78
2022-11-23T06:14:50.519Z,99437.14
2022-11-23T06:15:54.593Z,99437.14
2022-11-23T06:16:59.761Z,99431.79
2022-11-23T06:18:10.517Z,99442.50
2022-11-23T06:19:14.489Z,99441.66
2022-11-23T06:20:17.218Z,99439.82
2022-11-23T06:21:21.292Z,99447.02
2022-11-23T06:22:23.474Z,99448.84
2022-11-23T06:23:37.206Z,99455.03
2022-11-23T06:24:39.854Z,99452.24
2022-11-23T06:25:47.201Z,99459.43
2022-11-23T06:26:57.378Z,99456.75
2022-11-23T06:28:01.316Z,99461.23
2022-11-23T06:29:05.245Z,99458.55
2022-11-23T06:30:09.960Z,99452.36
2022-11-23T06:31:13.191Z,99452.36
2022-11-23T06:32:17.317Z,99449.56
2022-11-23T06:33:19.476Z,99446.05
2022-11-23T06:34:23.617Z,99452.24
2022-11-23T06:35:26.962Z,99439.82
2022-11-23T06:36:29.598Z,99444.21
2022-11-23T06:37:34.223Z,99451.40
2022-11-23T06:38:36.631Z,99454.08
2022-11-23T06:39:41.013Z,99455.77
2022-11-23T06:40:44.161Z,99457.59
2022-11-23T06:41:47.412Z,99455.77
2022-11-23T06:42:51.036Z,99456.63
2022-11-23T06:43:55.063Z,99451.28
2022-11-23T06:44:59.179Z,99455.67
2022-11-23T06:46:04.028Z,99449.80
2022-11-23T06:47:06.542Z,99449.80
2022-11-23T06:48:09.542Z,99454.69
2022-11-23T06:49:13.585Z,99456.52
2022-11-23T06:50:17.773Z,99459.19
2022-11-23T06:51:21.365Z,99453.00
2022-11-23T06:52:25.028Z,99457.36
2022-11-23T06:53:28.394Z,99455.55
2022-11-23T06:54:32.372Z,99458.23
2022-11-23T06:55:36.538Z,99457.36
2022-11-23T06:56:40.162Z,99460.91
2022-11-23T06:57:45.128Z,99460.91
2022-11-23T06:58:47.472Z,99458.23
2022-11-23T06:59:51.479Z,99460.91
2022-11-23T07:01:00.781Z,99468.82
2022-11-23T07:02:03.660Z,99464.42
2022-11-23T07:04:32.048Z,99461.91
2022-11-23T07:05:35.042Z,99451.88
2022-11-23T07:06:41.077Z,99457.36
2022-11-23T07:07:45.524Z,99458.23
2022-11-23T07:08:50.736Z,99455.55
2022-11-23T07:09:57.511Z,99459.08
2022-11-23T07:11:03.941Z,99453.72
2022-11-23T07:12:06.943Z,99453.72
2022-11-23T07:13:10.103Z,99450.20
2022-11-23T07:14:12.434Z,99456.39
2022-11-23T07:15:16.479Z,99456.39
2022-11-23T07:16:19.863Z,99453.72
2022-11-23T07:17:23.954Z,99457.36
2022-11-23T07:18:27.172Z,99457.36
2022-11-23T07:19:31.450Z,99459.08
2022-11-23T07:20:34.220Z,99457.36
2022-11-23T07:21:36.295Z,99453.72
2022-11-23T07:22:38.753Z,99463.59
2022-11-23T07:23:40.954Z,99460.79
2022-11-23T07:24:46.743Z,99459.91
2022-11-23T07:25:48.087Z,99467.95
2022-11-23T07:26:50.717Z,99471.50
2022-11-23T07:27:56.705Z,99473.30
2022-11-23T07:28:59.375Z,99479.53
2022-11-23T07:30:02.723Z,99467.95
2022-11-23T07:31:06.137Z,99463.47
2022-11-23T07:32:09.280Z,99466.14
2022-11-23T07:33:12.161Z,99457.23
2022-11-23T07:34:15.052Z,99468.82
2022-11-23T07:38:24.515Z,99477.70
2022-11-23T07:39:48.909Z,99469.66
2022-11-23T07:40:34.016Z,99480.38
2022-11-23T07:46:57.059Z,99487.44
2022-11-23T07:48:01.408Z,99488.41
2022-11-23T07:49:03.672Z,99484.77
2022-11-23T07:50:07.670Z,99483.05
2022-11-23T07:52:13.726Z,99480.38
2022-11-23T07:53:15.803Z,99486.48
2022-11-23T07:55:22.224Z,99490.95
2022-11-23T07:56:24.326Z,99489.16
2022-11-23T07:57:27.239Z,99489.16
2022-11-23T07:58:29.216Z,99484.64
2022-11-23T07:59:32.311Z,99484.77
2022-11-23T08:00:34.897Z,99482.09
2022-11-23T08:02:52.754Z,99496.44
2022-11-23T08:03:46.343Z,99499.11
2022-11-23T08:05:50.250Z,99498.98
2022-11-23T08:06:53.095Z,99495.47
2022-11-23T08:07:59.815Z,99498.14
2022-11-23T08:09:02.662Z,99497.19
2022-11-23T08:10:07.836Z,99501.66
2022-11-23T08:11:09.955Z,99503.38
2022-11-23T08:12:13.684Z,99501.66
2022-11-23T08:13:15.797Z,99504.34
2022-11-23T08:16:24.914Z,99513.25
2022-11-23T08:17:28.065Z,99505.22
2022-11-23T08:18:31.138Z,99503.38
2022-11-23T08:19:33.596Z,99499.86
2022-11-23T08:20:36.760Z,99500.70
2022-11-23T08:21:38.870Z,99507.89
2022-11-23T08:22:41.387Z,99512.26
2022-11-23T08:23:43.489Z,99511.41
2022-11-23T08:24:46.436Z,99514.09
2022-11-23T08:25:48.586Z,99521.16
2022-11-23T08:26:51.125Z,99511.41
2022-11-23T08:27:58.272Z,99507.78
2022-11-23T08:29:01.070Z,99507.02
2022-11-23T08:30:04.322Z,99513.45
2022-11-23T08:31:09.541Z,99512.84
2022-11-23T08:32:12.396Z,99509.41
2022-11-23T08:33:14.466Z,99511.37
2022-11-23T08:34:16.978Z,99507.93
2022-11-23T08:35:19.049Z,99509.04
2022-11-23T08:36:21.523Z,99507.44
2022-11-23T08:37:23.963Z,99510.31
2022-11-23T08:38:27.155Z,99510.55
2022-11-23T08:39:29.273Z,99509.83
2022-11-23T08:40:32.404Z,99514.42
2022-11-23T08:41:35.050Z,99505.78
2022-11-23T08:42:37.161Z,99508.58
2022-11-23T08:43:39.707Z,99504.30
2022-11-23T08:44:41.815Z,99505.37
2022-11-23T08:45:43.972Z,99508.28
2022-11-23T08:46:46.477Z,99508.59
2022-11-23T08:47:49.137Z,99506.99
2022-11-23T08:48:51.241Z,99507.11
2022-11-23T08:49:53.853Z,99509.89
2022-11-23T08:50:59.312Z,99507.34
2022-11-23T08:52:01.467Z,99502.95
2022-11-23T08:53:04.068Z,99498.70
2022-11-23T08:54:06.277Z,99500.61
2022-11-23T08:55:08.585Z,99499.85
2022-11-23T08:56:12.713Z,99499.94
2022-11-23T08:57:14.844Z,99494.70
2022-11-23T08:58:16.960Z,99493.21
2022-11-23T08:59:19.811Z,99492.37
2022-11-23T09:00:22.603Z,99496.00
2022-11-23T09:01:25.053Z,99498.79
2022-11-23T09:02:27.790Z,99495.38
2022-11-23T09:03:29.702Z,99484.69
2022-11-23T09:04:32.232Z,99498.17
2022-11-23T09:05:36.548Z,99496.45
2022-11-23T09:06:38.700Z,99497.41
2022-11-23T09:07:40.834Z,99501.91
2022-11-23T09:08:45.187Z,99492.17
2022-11-23T09:09:47.307Z,99489.62
2022-11-23T09:10:49.389Z,99487.05
2022-11-23T09:11:51.940Z,99487.90
2022-11-23T09:12:54.017Z,99493.13
2022-11-23T09:13:57.113Z,99481.37
2022-11-23T09:15:00.311Z,99491.00
2022-11-23T09:16:02.637Z,99499.74
2022-11-23T09:17:04.942Z,99489.81
2022-11-23T09:18:07.098Z,99486.06
2022-11-23T09:19:13.241Z,99483.16
2022-11-23T09:20:15.722Z,99495.46
2022-11-23T09:21:17.812Z,99477.50
2022-11-23T09:22:20.677Z,99485.41
2022-11-23T09:23:23.085Z,99484.34
2022-11-23T09:24:25.061Z,99481.55
2022-11-23T09:25:27.260Z,99486.81
2022-11-23T09:26:30.453Z,99478.67
2022-11-23T09:27:32.635Z,99482.08
2022-11-23T09:28:34.593Z,99475.77
2022-11-23T09:29:37.529Z,99473.81
2022-11-23T09:30:40.676Z,99482.72
2022-11-23T09:31:42.923Z,99475.42
2022-11-23T09:32:46.588Z,99469.95
2022-11-23T09:33:53.747Z,99474.34
2022-11-23T09:34:56.744Z,99460.01
2022-11-23T09:36:00.096Z,99463.41
2022-11-23T09:37:02.309Z,99464.28
2022-11-23T09:38:04.351Z,99465.97
2022-11-23T09:39:06.850Z,99465.84
2022-11-23T09:41:30.697Z,99463.98
2022-11-23T09:42:54.798Z,99459.42
2022-11-23T09:45:35.011Z,99475.33
2022-11-23T09:46:50.342Z,99476.95
2022-11-23T09:48:25.326Z,99475.16
2022-11-23T09:50:47.120Z,99483.13
2022-11-23T09:51:50.685Z,99476.84
2022-11-23T09:52:54.627Z,99472.36
2022-11-23T09:54:05.086Z,99480.39
2022-11-23T09:55:32.953Z,99483.06
2022-11-23T09:56:36.285Z,99476.72
2022-11-23T09:57:39.609Z,99480.27
2022-11-23T09:58:43.758Z,99481.99
2022-11-23T09:59:58.589Z,99482.83
2022-11-23T10:01:05.918Z,99472.97
2022-11-23T10:03:23.217Z,99475.70
2022-11-23T10:04:25.484Z,99470.17
2022-11-23T10:05:29.415Z,99475.53
2022-11-23T10:06:35.462Z,99471.05
2022-11-23T10:08:11.519Z,99460.23
2022-11-23T10:10:53.452Z,99447.84
2022-11-23T10:12:14.369Z,99448.69
2022-11-23T10:13:23.717Z,99444.29
2022-11-23T10:14:56.748Z,99448.89
2022-11-23T10:16:19.526Z,99451.56
2022-11-23T10:17:46.821Z,99458.87
2022-11-23T10:19:14.136Z,99445.61
2022-11-23T10:20:29.567Z,99443.89
2022-11-23T10:21:52.127Z,99435.98
2022-11-23T10:22:59.732Z,99442.29
2022-11-23T10:24:12.107Z,99433.54
